createdAt,value
2018-03-25T18:41:28.823Z,2.40
2018-03-25T18:43:57.022Z,1.60
2018-03-25T18:46:25.057Z,1.20
2018-03-25T18:48:53.090Z,1.10
2018-03-25T18:51:21.117Z,1.00
2018-03-25T18:53:49.486Z,1.00
2018-03-25T18:56:17.514Z,0.90
2018-03-25T18:58:45.556Z,0.80
2018-03-25T19:01:14.526Z,0.60
2018-03-25T19:03:42.567Z,0.60
2018-03-25T19:06:10.714Z,0.50
2018-03-25T19:08:38.809Z,0.50
2018-03-25T19:11:06.860Z,0.40
2018-03-25T19:13:34.899Z,0.30
2018-03-25T19:16:02.988Z,0.30
2018-03-25T19:18:31.017Z,0.20
2018-03-25T19:20:59.290Z,0.20
2018-03-25T19:23:27.327Z,0.10
2018-03-25T19:25:55.363Z,0.00
2018-03-25T19:28:23.419Z,-0.10
2018-03-25T19:30:51.965Z,-0.10
2018-03-25T19:33:20.136Z,-0.10
2018-03-25T19:35:48.179Z,-0.20
2018-03-25T19:38:16.270Z,-0.20
2018-03-25T19:40:44.337Z,-0.20
2018-03-25T19:43:12.377Z,-0.20
2018-03-25T19:45:40.453Z,-0.20
2018-03-25T19:48:09.274Z,-0.20
2018-03-25T19:50:37.313Z,-0.20
2018-03-25T19:53:05.366Z,-0.20
2018-03-25T19:55:33.437Z,-0.20
2018-03-25T19:58:01.614Z,-0.20
2018-03-25T20:00:29.670Z,-0.20
2018-03-25T20:02:57.712Z,-0.20
2018-03-25T20:05:25.760Z,-0.20
2018-03-25T20:07:53.817Z,-0.20
2018-03-25T20:10:21.874Z,-0.10
2018-03-25T20:12:49.919Z,0.10
2018-03-25T20:15:18.146Z,0.30
2018-03-25T20:17:46.957Z,0.60
2018-03-25T20:20:14.982Z,0.60
2018-03-25T20:22:43.072Z,0.70
2018-03-25T20:25:11.099Z,0.80
2018-03-25T20:27:39.154Z,0.90
2018-03-25T20:30:07.227Z,1.00
2018-03-25T20:32:35.517Z,1.10
2018-03-25T20:35:03.553Z,1.20
2018-03-25T20:37:31.618Z,1.20
2018-03-25T20:39:59.729Z,1.30
2018-03-25T20:42:27.796Z,1.40
2018-03-25T20:44:55.901Z,1.40
2018-03-25T20:47:23.937Z,1.40
2018-03-25T20:49:51.973Z,1.30
2018-03-25T20:52:20.033Z,1.20
2018-03-25T20:54:48.066Z,1.10
2018-03-25T20:57:16.229Z,0.90
2018-03-25T20:59:44.309Z,0.80
2018-03-25T21:02:12.351Z,0.70
2018-03-25T21:04:40.397Z,0.50
2018-03-25T21:07:08.443Z,0.40
2018-03-25T21:09:36.482Z,0.30
2018-03-25T21:12:04.563Z,0.30
2018-03-25T21:14:32.750Z,0.30
2018-03-25T21:17:00.799Z,0.20
2018-03-25T21:19:28.873Z,0.10
2018-03-25T21:21:56.929Z,0.00
2018-03-25T21:24:24.975Z,0.00
2018-03-25T21:26:53.052Z,0.00
2018-03-25T21:29:21.108Z,0.00
2018-03-25T21:31:49.135Z,0.00
2018-03-25T21:34:17.183Z,0.00
2018-03-25T21:36:45.235Z,-0.10
2018-03-25T21:39:13.289Z,-0.10
2018-03-25T21:41:41.370Z,-0.10
2018-03-25T21:44:09.435Z,-0.20
2018-03-25T21:46:37.475Z,-0.20
2018-03-25T21:49:05.543Z,-0.30
2018-03-25T21:51:33.588Z,-0.30
2018-03-25T21:54:01.635Z,-0.30
2018-03-25T21:56:30.463Z,-0.40
2018-03-25T21:58:58.524Z,-0.50
2018-03-25T22:01:26.553Z,-0.40
2018-03-25T22:03:54.607Z,-0.70
2018-03-25T22:06:22.674Z,-0.50
2018-03-25T22:08:50.719Z,-0.40
2018-03-25T22:11:18.770Z,-0.50
2018-03-25T22:13:46.842Z,-0.30
2018-03-25T22:16:14.886Z,-0.10
2018-03-25T22:18:55.574Z,0.10
2018-03-25T22:21:23.618Z,0.10
2018-03-25T22:23:51.668Z,0.30
2018-03-25T22:26:19.737Z,0.40
2018-03-25T22:28:47.769Z,0.40
2018-03-25T22:31:15.812Z,0.50
2018-03-25T22:33:44.138Z,0.60
2018-03-25T22:36:12.171Z,0.70
2018-03-25T22:38:40.234Z,0.80
2018-03-25T22:41:08.311Z,0.90
2018-03-25T22:43:37.115Z,1.10
2018-03-25T22:46:05.168Z,1.10
2018-03-25T22:48:33.242Z,1.20
2018-03-25T22:51:01.320Z,1.20
2018-03-25T22:53:29.438Z,1.40
2018-03-25T22:55:57.477Z,1.50
2018-03-25T22:58:25.519Z,1.60
2018-03-25T23:00:53.583Z,1.60
2018-03-25T23:03:21.614Z,1.70
